Time;durP1;ratioP1;P1;durP2;ratioP2;P2;SDS_P1;SDS_P2;PMS_P1;PMS_P2;Temp;Humidity;BMP_temperature;BMP_pressure;BME280_temperature;BME280_humidity;BME280_pressure;Samples;Min_cycle;Max_cycle;Signal;HPM_P1;HPM_P2
2021/07/30 00:00:31;;;;;;;5.13;2.60;;;15.40;78.70;;;;;;2040598;29;20095;-90
2021/07/30 00:01:32;;;;;;;4.32;2.72;;;15.30;78.80;;;;;;2041127;29;20171;-90
2021/07/30 00:02:33;;;;;;;5.63;3.00;;;15.30;78.80;;;;;;2043645;29;20056;-89
2021/07/30 00:03:33;;;;;;;5.28;2.90;;;15.30;78.90;;;;;;2043882;29;20040;-90
2021/07/30 00:04:34;;;;;;;6.03;2.83;;;15.30;79.10;;;;;;2043960;29;20114;-89
2021/07/30 00:05:35;;;;;;;6.32;3.05;;;15.20;79.10;;;;;;2044441;29;20453;-90
2021/07/30 00:06:36;;;;;;;5.18;2.72;;;15.20;79.10;;;;;;2036643;28;20131;-90
2021/07/30 00:07:36;;;;;;;5.22;3.03;;;15.20;79.20;;;;;;2054341;28;20043;-90
2021/07/30 00:08:38;;;;;;;4.72;2.78;;;15.20;79.20;;;;;;2063245;28;20043;-90
2021/07/30 00:09:39;;;;;;;6.40;2.90;;;15.20;79.20;;;;;;2038035;29;20036;-90
2021/07/30 00:10:40;;;;;;;5.10;2.90;;;15.20;79.30;;;;;;2042096;29;20044;-90
2021/07/30 00:11:41;;;;;;;5.72;3.05;;;15.10;79.20;;;;;;2038768;29;20040;-90
2021/07/30 00:12:42;;;;;;;4.30;2.85;;;15.10;79.20;;;;;;2045165;29;20055;-90
2021/07/30 00:13:44;;;;;;;5.75;3.10;;;15.10;79.20;;;;;;2046448;28;20040;-90
2021/07/30 00:14:44;;;;;;;5.47;3.08;;;15.10;79.20;;;;;;2060924;28;20114;-90
2021/07/30 00:15:45;;;;;;;5.80;2.88;;;15.10;79.20;;;;;;2053224;28;20059;-92
2021/07/30 00:16:46;;;;;;;5.65;3.20;;;15.10;79.30;;;;;;2053562;29;20043;-90
2021/07/30 00:17:46;;;;;;;5.15;2.78;;;15.10;79.30;;;;;;2045124;29;20078;-90
2021/07/30 00:18:47;;;;;;;5.65;3.20;;;15.00;79.30;;;;;;2043101;29;20040;-90
2021/07/30 00:19:47;;;;;;;4.80;2.80;;;15.00;79.30;;;;;;2050067;28;20047;-91
2021/07/30 00:20:48;;;;;;;4.03;2.70;;;15.00;79.40;;;;;;2042316;29;20111;-90
2021/07/30 00:21:49;;;;;;;5.53;2.95;;;15.00;79.40;;;;;;2039678;29;20040;-91
2021/07/30 00:22:49;;;;;;;5.38;3.05;;;15.00;79.40;;;;;;2041991;29;20122;-91
2021/07/30 00:23:50;;;;;;;4.68;2.80;;;15.00;79.40;;;;;;2048233;28;20043;-91
2021/07/30 00:24:51;;;;;;;5.60;2.80;;;15.00;79.50;;;;;;2051195;28;20035;-90
2021/07/30 00:25:51;;;;;;;5.22;2.85;;;15.00;79.50;;;;;;2041943;29;20122;-90
2021/07/30 00:26:52;;;;;;;5.78;3.05;;;15.00;79.60;;;;;;2046896;29;20039;-91
2021/07/30 00:27:53;;;;;;;4.88;2.85;;;15.00;79.50;;;;;;2039648;29;20067;-90
2021/07/30 00:28:53;;;;;;;4.07;2.78;;;15.00;79.50;;;;;;2041051;29;20134;-91
2021/07/30 00:29:54;;;;;;;4.60;2.75;;;14.90;80.10;;;;;;2049063;28;20039;-90
2021/07/30 00:30:55;;;;;;;5.47;2.90;;;14.90;79.40;;;;;;2043109;29;20043;-91
2021/07/30 00:31:55;;;;;;;4.85;3.03;;;14.90;79.50;;;;;;2044846;29;20068;-90
2021/07/30 00:32:57;;;;;;;5.53;2.90;;;14.90;79.50;;;;;;2036797;29;20139;-88
2021/07/30 00:33:58;;;;;;;5.45;2.85;;;14.90;79.50;;;;;;2043689;29;20080;-91
2021/07/30 00:34:58;;;;;;;5.00;3.15;;;14.90;79.50;;;;;;2041920;29;20178;-91
2021/07/30 00:35:59;;;;;;;4.35;2.50;;;14.90;79.50;;;;;;2044875;29;20059;-91
2021/07/30 00:37:00;;;;;;;6.63;3.15;;;14.90;79.50;;;;;;2044472;29;20039;-91
2021/07/30 00:38:00;;;;;;;5.93;3.17;;;14.90;79.50;;;;;;2037805;29;20040;-91
2021/07/30 00:39:01;;;;;;;6.32;3.20;;;14.90;79.50;;;;;;2044385;29;20043;-90
2021/07/30 00:40:03;;;;;;;5.43;3.00;;;14.90;79.50;;;;;;2043916;29;20051;-91
2021/07/30 00:41:04;;;;;;;4.82;3.00;;;14.90;79.50;;;;;;2041056;29;20060;-90
2021/07/30 00:42:04;;;;;;;5.55;3.10;;;14.90;79.60;;;;;;2043146;29;20547;-91
2021/07/30 00:43:06;;;;;;;4.28;2.65;;;14.90;79.50;;;;;;2042982;29;20032;-91
2021/07/30 00:44:07;;;;;;;5.40;3.03;;;14.90;79.60;;;;;;2043612;29;20115;-90
2021/07/30 00:45:08;;;;;;;4.50;2.85;;;14.90;79.60;;;;;;2044349;28;20031;-90
2021/07/30 00:46:09;;;;;;;6.43;3.28;;;14.80;79.50;;;;;;2059640;28;20038;-90
2021/07/30 00:47:10;;;;;;;6.40;3.28;;;14.80;79.60;;;;;;2052438;28;20078;-91
2021/07/30 00:48:11;;;;;;;4.72;3.08;;;14.80;79.60;;;;;;2044308;28;20075;-90
2021/07/30 00:49:13;;;;;;;4.53;2.90;;;14.80;80.10;;;;;;2038895;29;20040;-90
2021/07/30 00:50:15;;;;;;;5.22;3.20;;;14.80;79.60;;;;;;2050019;29;20070;-91
2021/07/30 00:51:15;;;;;;;5.75;3.10;;;14.80;79.60;;;;;;2050841;28;20042;-90
2021/07/30 00:52:16;;;;;;;4.97;3.10;;;14.80;79.70;;;;;;2062563;28;20038;-90
2021/07/30 00:53:18;;;;;;;7.47;3.20;;;14.80;79.70;;;;;;2041739;29;20047;-91
2021/07/30 00:54:19;;;;;;;6.53;3.28;;;14.80;79.70;;;;;;2042238;28;20036;-91
2021/07/30 00:55:20;;;;;;;5.00;2.90;;;14.80;79.80;;;;;;2042615;29;20513;-90
2021/07/30 00:56:21;;;;;;;5.47;3.20;;;14.80;79.80;;;;;;2034887;29;20059;-91
2021/07/30 00:57:23;;;;;;;5.00;2.83;;;14.70;79.80;;;;;;2038326;29;20032;-91
2021/07/30 00:58:25;;;;;;;5.82;3.25;;;14.70;79.80;;;;;;2034683;29;20079;-90
2021/07/30 00:59:26;;;;;;;5.57;3.20;;;14.70;79.90;;;;;;2042707;29;20028;-91
2021/07/30 01:00:27;;;;;;;7.03;3.08;;;14.70;79.90;;;;;;2049641;28;20073;-90
2021/07/30 01:01:28;;;;;;;5.03;3.08;;;14.70;79.90;;;;;;2041150;28;20036;-90
2021/07/30 01:02:29;;;;;;;5.07;3.25;;;14.70;80.00;;;;;;2057072;28;20034;-90
2021/07/30 01:03:31;;;;;;;6.95;3.45;;;14.70;80.00;;;;;;2042399;29;20091;-90
2021/07/30 01:04:32;;;;;;;7.22;3.47;;;14.70;80.00;;;;;;2039842;28;20036;-90
2021/07/30 01:05:33;;;;;;;5.60;3.20;;;14.70;80.00;;;;;;2049624;28;20446;-90
2021/07/30 01:06:34;;;;;;;5.50;3.38;;;14.60;79.90;;;;;;2040692;29;20430;-89
2021/07/30 01:07:34;;;;;;;5.45;3.55;;;14.70;80.00;;;;;;2042216;29;20099;-89
2021/07/30 01:08:36;;;;;;;5.07;3.00;;;14.60;79.90;;;;;;2046407;29;20048;-90
2021/07/30 01:09:37;;;;;;;6.28;3.28;;;14.60;79.90;;;;;;2047024;28;20134;-89
2021/07/30 01:10:38;;;;;;;7.80;3.65;;;14.60;79.80;;;;;;2056067;28;20035;-90
2021/07/30 01:11:39;;;;;;;5.72;3.28;;;14.60;79.80;;;;;;2057803;28;20377;-90
2021/07/30 01:12:39;;;;;;;6.57;3.30;;;14.60;79.80;;;;;;2057395;28;20058;-90
2021/07/30 01:13:40;;;;;;;5.65;3.42;;;14.60;79.80;;;;;;2048659;28;20046;-90
2021/07/30 01:14:41;;;;;;;5.10;3.30;;;14.60;79.80;;;;;;2048662;28;20094;-90
2021/07/30 01:15:41;;;;;;;5.78;3.35;;;14.60;79.90;;;;;;2049503;28;20136;-90
2021/07/30 01:16:42;;;;;;;5.18;3.40;;;14.50;79.80;;;;;;2035670;29;20035;-90
2021/07/30 01:17:43;;;;;;;6.53;3.47;;;14.50;79.90;;;;;;2042111;29;20090;-90
2021/07/30 01:18:43;;;;;;;4.60;3.20;;;14.50;80.00;;;;;;2042397;29;20123;-91
2021/07/30 01:19:44;;;;;;;5.57;3.17;;;14.50;80.00;;;;;;2034489;29;20040;-90
2021/07/30 01:20:53;;;;;;;5.00;3.42;;;14.50;80.00;;;;;;2040944;29;20056;-90
2021/07/30 01:21:54;;;;;;;5.85;3.25;;;14.50;80.10;;;;;;2043027;29;20090;-90
2021/07/30 01:22:59;;;;;;;5.82;3.45;;;14.50;80.10;;;;;;2057696;28;20505;-90
2021/07/30 01:23:59;;;;;;;5.97;3.28;;;14.50;80.20;;;;;;2056360;28;20073;-90
2021/07/30 01:25:00;;;;;;;6.57;3.10;;;14.50;80.20;;;;;;2058030;28;20041;-90
2021/07/30 01:26:01;;;;;;;5.00;3.13;;;14.50;80.20;;;;;;2041236;29;20131;-90
2021/07/30 01:27:01;;;;;;;5.38;3.10;;;14.50;80.20;;;;;;2034172;29;20410;-90
2021/07/30 01:28:02;;;;;;;6.32;3.25;;;14.50;80.20;;;;;;2026351;29;20599;-89
2021/07/30 01:29:03;;;;;;;5.30;3.10;;;14.50;80.20;;;;;;2029478;28;20076;-90
2021/07/30 01:30:04;;;;;;;4.95;3.20;;;14.60;80.30;;;;;;2033162;29;20133;-90
2021/07/30 01:31:05;;;;;;;5.05;3.20;;;14.50;80.20;;;;;;2038663;29;20075;-91
2021/07/30 01:32:06;;;;;;;7.28;3.45;;;14.50;80.20;;;;;;2053337;28;20035;-90
2021/07/30 01:33:06;;;;;;;7.15;3.63;;;14.60;80.20;;;;;;2049285;28;20497;-90
2021/07/30 01:34:07;;;;;;;5.22;3.15;;;14.50;80.20;;;;;;2046755;28;20075;-90
2021/07/30 01:35:08;;;;;;;5.40;3.30;;;14.50;80.20;;;;;;2049726;28;20053;-90
2021/07/30 01:36:09;;;;;;;4.72;3.10;;;14.60;80.20;;;;;;2049029;28;20479;-90
2021/07/30 01:37:10;;;;;;;6.90;3.75;;;14.50;80.20;;;;;;2049495;28;20039;-90
2021/07/30 01:38:11;;;;;;;5.80;3.30;;;14.50;80.20;;;;;;2041475;29;20036;-91
2021/07/30 01:39:12;;;;;;;6.30;3.53;;;14.50;80.20;;;;;;2034195;29;20044;-91
2021/07/30 01:40:13;;;;;;;7.00;3.55;;;14.50;80.20;;;;;;2045479;28;20056;-90
2021/07/30 01:41:15;;;;;;;5.05;3.17;;;14.50;80.20;;;;;;2049118;28;20061;-90
2021/07/30 01:42:16;;;;;;;6.00;3.20;;;14.50;80.30;;;;;;2033506;29;20040;-90
2021/07/30 01:43:16;;;;;;;6.55;3.35;;;14.50;80.30;;;;;;2026346;29;20064;-91
2021/07/30 01:44:17;;;;;;;5.68;3.33;;;14.50;80.40;;;;;;2026188;29;20047;-90
2021/07/30 01:45:17;;;;;;;6.07;3.28;;;14.50;80.50;;;;;;2056606;28;21559;-89
2021/07/30 01:46:18;;;;;;;5.18;3.30;;;14.40;80.50;;;;;;2049769;28;20046;-90
2021/07/30 01:47:20;;;;;;;4.40;3.08;;;14.40;80.50;;;;;;2032550;29;20071;-90
2021/07/30 01:48:20;;;;;;;5.03;3.33;;;14.40;80.60;;;;;;2040918;29;20138;-90
2021/07/30 01:49:21;;;;;;;6.85;3.58;;;14.40;80.60;;;;;;2045294;29;20486;-90
2021/07/30 01:50:22;;;;;;;6.47;3.50;;;14.40;80.60;;;;;;2030343;29;20876;-90
2021/07/30 01:51:22;;;;;;;4.95;3.22;;;14.40;81.30;;;;;;2040756;29;20044;-90
2021/07/30 01:52:23;;;;;;;5.35;3.35;;;14.40;80.70;;;;;;2050480;28;20047;-90
2021/07/30 01:53:24;;;;;;;6.25;3.42;;;14.40;80.80;;;;;;2047782;28;20703;-90
2021/07/30 01:54:24;;;;;;;4.82;3.30;;;14.30;80.70;;;;;;2058200;28;20517;-90
2021/07/30 01:55:25;;;;;;;5.45;3.55;;;14.40;80.80;;;;;;2049836;28;20067;-90
2021/07/30 01:56:26;;;;;;;6.35;3.70;;;14.30;80.80;;;;;;2058397;28;20043;-90
2021/07/30 01:57:27;;;;;;;5.63;3.70;;;14.40;80.80;;;;;;2042778;29;20035;-90
2021/07/30 01:58:28;;;;;;;5.38;3.53;;;14.30;80.80;;;;;;2045769;28;20527;-90
2021/07/30 01:59:29;;;;;;;5.75;3.70;;;14.30;80.70;;;;;;2033882;29;20114;-89
2021/07/30 02:00:29;;;;;;;5.13;3.40;;;14.30;80.70;;;;;;2029802;29;20036;-91
2021/07/30 02:01:30;;;;;;;5.50;3.45;;;14.30;80.70;;;;;;2034184;29;20032;-89
2021/07/30 02:02:33;;;;;;;4.53;3.28;;;14.30;80.80;;;;;;2041112;29;20123;-90
2021/07/30 02:03:33;;;;;;;5.40;3.47;;;14.20;80.80;;;;;;2053181;28;20049;-90
2021/07/30 02:04:34;;;;;;;6.03;3.40;;;14.30;80.90;;;;;;2049751;28;20043;-90
2021/07/30 02:05:38;;;;;;;5.05;3.40;;;14.30;80.90;;;;;;2048770;28;20476;-90
2021/07/30 02:06:42;;;;;;;6.22;3.70;;;14.30;80.80;;;;;;2026476;29;20052;-90
2021/07/30 02:07:43;;;;;;;6.05;3.75;;;14.30;80.90;;;;;;2034670;29;20139;-90
2021/07/30 02:08:44;;;;;;;5.70;3.42;;;14.30;80.80;;;;;;2045749;28;20039;-90
2021/07/30 02:09:45;;;;;;;5.68;3.55;;;14.30;80.80;;;;;;2041196;29;20070;-90
2021/07/30 02:10:46;;;;;;;7.25;3.60;;;14.30;80.80;;;;;;2048453;28;20035;-90
2021/07/30 02:11:51;;;;;;;6.53;3.40;;;14.30;80.80;;;;;;2056755;28;20381;-90
2021/07/30 02:14:18;;;;;;;5.78;3.30;;;14.30;80.90;;;;;;2049133;29;20058;-90
2021/07/30 02:15:20;;;;;;;6.55;3.78;;;14.20;80.80;;;;;;2049739;29;20034;-90
2021/07/30 02:16:20;;;;;;;6.22;3.60;;;14.20;80.80;;;;;;2049509;28;20039;-90
2021/07/30 02:17:21;;;;;;;4.88;3.40;;;14.20;80.80;;;;;;2034020;29;20035;-90
2021/07/30 02:18:22;;;;;;;5.28;3.38;;;14.20;80.80;;;;;;2041517;28;20044;-91
2021/07/30 02:19:23;;;;;;;5.80;3.50;;;14.20;80.80;;;;;;2041691;29;20039;-91
2021/07/30 02:20:24;;;;;;;6.55;3.65;;;14.20;80.80;;;;;;2041362;29;20044;-90
2021/07/30 02:21:24;;;;;;;6.97;3.55;;;14.20;80.80;;;;;;2042454;29;20130;-90
2021/07/30 02:22:25;;;;;;;4.82;3.22;;;14.20;80.80;;;;;;2040048;29;20086;-90
2021/07/30 02:23:26;;;;;;;5.97;3.25;;;14.20;80.80;;;;;;2025614;29;20044;-91
2021/07/30 02:24:26;;;;;;;6.43;3.60;;;14.20;80.80;;;;;;2049248;28;20039;-90
2021/07/30 02:25:27;;;;;;;5.35;3.55;;;14.20;80.80;;;;;;2049091;28;20579;-91
2021/07/30 02:26:28;;;;;;;6.07;3.90;;;14.10;80.70;;;;;;2057567;28;20094;-90
2021/07/30 02:27:28;;;;;;;6.90;3.33;;;14.10;80.70;;;;;;2049523;28;20035;-90
2021/07/30 02:28:29;;;;;;;5.95;3.70;;;14.10;80.70;;;;;;2055653;28;20134;-90
2021/07/30 02:29:30;;;;;;;5.75;3.75;;;14.10;80.80;;;;;;2051266;28;20031;-90
2021/07/30 02:30:31;;;;;;;5.18;3.50;;;14.10;80.80;;;;;;2041811;29;20044;-91
2021/07/30 02:31:32;;;;;;;5.13;3.70;;;14.10;80.80;;;;;;2047517;28;20122;-90
2021/07/30 02:32:32;;;;;;;5.25;3.45;;;14.10;80.80;;;;;;2049004;28;20531;-90
2021/07/30 02:33:33;;;;;;;5.50;3.60;;;14.10;80.80;;;;;;2048546;28;20038;-90
2021/07/30 02:34:33;;;;;;;5.68;3.55;;;14.10;80.80;;;;;;2041901;29;20175;-91
2021/07/30 02:35:34;;;;;;;6.22;3.70;;;14.10;80.90;;;;;;2048990;28;20047;-91
2021/07/30 02:36:35;;;;;;;5.72;3.50;;;14.10;80.90;;;;;;2033809;29;20123;-89
2021/07/30 02:37:36;;;;;;;5.45;3.58;;;14.10;80.90;;;;;;2033534;29;20040;-90
2021/07/30 02:38:37;;;;;;;8.93;4.13;;;14.10;80.90;;;;;;2040917;28;20039;-90
2021/07/30 02:39:37;;;;;;;6.35;3.60;;;14.10;80.90;;;;;;2040271;29;20668;-91
2021/07/30 02:40:38;;;;;;;6.18;3.67;;;14.10;81.00;;;;;;2048522;28;20529;-90
2021/07/30 02:41:39;;;;;;;5.72;3.53;;;14.10;81.00;;;;;;2033199;29;20091;-90
2021/07/30 02:42:39;;;;;;;5.85;3.85;;;14.10;80.90;;;;;;2033617;29;20570;-90
2021/07/30 02:43:40;;;;;;;5.82;3.85;;;14.10;81.00;;;;;;2033681;28;20044;-90
2021/07/30 02:44:41;;;;;;;5.82;3.33;;;14.00;80.90;;;;;;2041279;29;20071;-91
2021/07/30 02:45:41;;;;;;;5.20;3.60;;;14.00;81.00;;;;;;2040370;29;20087;-90
2021/07/30 02:46:42;;;;;;;7.80;3.80;;;14.00;81.00;;;;;;2041572;29;20565;-90
2021/07/30 02:47:43;;;;;;;6.35;3.78;;;14.00;81.10;;;;;;2049479;28;20044;-89
2021/07/30 02:48:44;;;;;;;6.90;3.50;;;14.00;81.10;;;;;;2041420;29;20122;-91
2021/07/30 02:49:45;;;;;;;6.13;3.63;;;14.00;81.20;;;;;;2034051;29;20044;-90
2021/07/30 02:50:48;;;;;;;6.63;3.70;;;13.90;81.20;;;;;;2048497;28;20066;-90
2021/07/30 02:51:49;;;;;;;6.18;4.05;;;14.00;81.30;;;;;;2033480;29;20039;-90
2021/07/30 02:52:49;;;;;;;6.40;3.65;;;13.90;81.20;;;;;;2051138;28;20394;-90
2021/07/30 02:53:50;;;;;;;4.85;3.50;;;14.00;81.40;;;;;;2048376;28;20032;-90
2021/07/30 02:54:51;;;;;;;6.15;3.50;;;14.00;81.40;;;;;;2049499;29;20043;-91
2021/07/30 02:55:52;;;;;;;4.28;3.30;;;13.90;81.30;;;;;;2048498;28;20485;-89
2021/07/30 02:56:52;;;;;;;4.53;3.47;;;13.90;81.40;;;;;;2056596;28;20118;-90
2021/07/30 02:57:53;;;;;;;5.50;3.50;;;13.90;81.40;;;;;;2057482;28;20490;-90
2021/07/30 02:58:53;;;;;;;5.07;3.22;;;13.90;81.40;;;;;;2039825;29;20044;-91
2021/07/30 02:59:54;;;;;;;6.82;3.50;;;14.00;81.50;;;;;;2041041;29;20043;-91
2021/07/30 03:00:55;;;;;;;5.00;3.50;;;13.90;81.50;;;;;;2048930;28;20047;-90
2021/07/30 03:01:56;;;;;;;5.43;3.60;;;14.00;81.50;;;;;;2047275;29;20071;-90
2021/07/30 03:02:56;;;;;;;6.20;3.55;;;14.00;81.50;;;;;;2049386;29;20035;-91
2021/07/30 03:03:57;;;;;;;5.18;3.22;;;13.90;81.50;;;;;;2049187;28;20129;-90
2021/07/30 03:04:58;;;;;;;5.32;3.47;;;14.00;81.50;;;;;;2041326;29;20619;-90
2021/07/30 03:05:59;;;;;;;5.97;3.33;;;14.00;81.60;;;;;;2041454;29;20040;-90
2021/07/30 03:07:00;;;;;;;5.90;3.17;;;13.90;81.50;;;;;;2048845;28;20442;-90
2021/07/30 03:08:00;;;;;;;5.45;3.67;;;13.90;81.50;;;;;;2041373;29;20051;-90
2021/07/30 03:09:01;;;;;;;5.70;3.35;;;13.90;81.50;;;;;;2051442;28;20031;-90
2021/07/30 03:10:02;;;;;;;5.68;3.58;;;13.90;81.50;;;;;;2039542;29;20051;-90
2021/07/30 03:11:03;;;;;;;5.78;3.55;;;14.00;81.50;;;;;;2047188;29;20046;-89
2021/07/30 03:12:04;;;;;;;7.03;3.78;;;14.00;81.50;;;;;;2047347;29;20040;-91
2021/07/30 03:13:04;;;;;;;5.15;3.58;;;14.00;81.50;;;;;;2050046;28;20047;-89
2021/07/30 03:14:05;;;;;;;6.07;3.30;;;14.00;81.50;;;;;;2049986;28;20047;-90
2021/07/30 03:15:06;;;;;;;5.15;3.72;;;14.00;81.60;;;;;;2055157;29;20023;-90
2021/07/30 03:16:07;;;;;;;5.10;3.20;;;13.90;81.50;;;;;;2053749;28;20054;-89
2021/07/30 03:17:07;;;;;;;5.57;3.30;;;13.90;81.50;;;;;;2059795;28;20051;-90
2021/07/30 03:18:08;;;;;;;6.78;3.50;;;13.90;81.60;;;;;;2063660;28;20027;-91
2021/07/30 03:19:09;;;;;;;5.18;3.53;;;13.90;81.60;;;;;;2053753;28;20051;-90
2021/07/30 03:20:10;;;;;;;5.25;3.38;;;13.90;81.60;;;;;;2038037;29;20028;-90
2021/07/30 03:21:10;;;;;;;6.40;3.78;;;13.90;81.60;;;;;;2055051;28;20470;-90
2021/07/30 03:22:11;;;;;;;4.57;3.17;;;13.90;81.70;;;;;;2056735;28;20071;-90
2021/07/30 03:23:12;;;;;;;6.63;3.80;;;13.90;81.70;;;;;;2045820;28;20036;-89
2021/07/30 03:24:12;;;;;;;6.20;4.03;;;13.80;81.70;;;;;;2054898;28;20031;-90
2021/07/30 03:25:13;;;;;;;6.28;3.80;;;13.80;81.80;;;;;;2052510;29;20067;-90
2021/07/30 03:26:13;;;;;;;5.95;3.45;;;13.80;81.80;;;;;;2053438;28;20043;-90
2021/07/30 03:27:14;;;;;;;6.60;3.70;;;13.80;81.80;;;;;;2048679;28;20332;-90
2021/07/30 03:28:15;;;;;;;5.55;3.70;;;13.80;81.90;;;;;;2037100;29;20058;-90
2021/07/30 03:29:16;;;;;;;4.90;3.17;;;13.80;81.90;;;;;;2047990;28;20509;-90
2021/07/30 03:30:16;;;;;;;5.45;3.40;;;13.80;81.90;;;;;;2040255;29;20095;-89
2021/07/30 03:31:17;;;;;;;5.47;3.65;;;13.80;81.90;;;;;;2047586;28;20050;-90
2021/07/30 03:32:18;;;;;;;7.05;3.50;;;13.90;81.90;;;;;;2049334;28;20127;-90
2021/07/30 03:33:19;;;;;;;6.25;3.45;;;13.90;82.00;;;;;;2039468;29;20040;-90
2021/07/30 03:34:20;;;;;;;6.20;3.67;;;13.90;81.90;;;;;;2047324;28;20449;-90
2021/07/30 03:35:20;;;;;;;5.93;3.65;;;13.80;82.10;;;;;;2040188;29;20529;-90
2021/07/30 03:36:21;;;;;;;4.90;3.25;;;13.90;81.90;;;;;;2040800;29;20044;-90
2021/07/30 03:37:23;;;;;;;5.75;3.85;;;13.90;81.90;;;;;;2039724;29;20067;-90
2021/07/30 03:38:24;;;;;;;4.90;3.33;;;13.90;82.00;;;;;;2051019;28;20051;-90
2021/07/30 03:39:24;;;;;;;5.60;3.50;;;13.90;82.00;;;;;;2039631;29;20081;-90
2021/07/30 03:40:25;;;;;;;6.05;3.47;;;13.90;82.00;;;;;;2048754;28;20036;-90
2021/07/30 03:41:26;;;;;;;7.25;3.70;;;13.90;81.90;;;;;;2048452;28;20064;-90
2021/07/30 03:42:27;;;;;;;7.15;3.90;;;13.90;81.90;;;;;;2049492;28;20039;-90
2021/07/30 03:43:27;;;;;;;6.78;3.30;;;13.90;81.90;;;;;;2042066;29;20175;-90
2021/07/30 03:44:28;;;;;;;5.10;3.17;;;13.90;81.90;;;;;;2034465;29;20068;-90
2021/07/30 03:45:29;;;;;;;4.80;3.22;;;13.90;81.90;;;;;;2050199;28;20066;-90
2021/07/30 03:46:29;;;;;;;5.50;3.40;;;13.90;82.50;;;;;;2050558;28;20038;-91
2021/07/30 03:47:30;;;;;;;5.03;3.20;;;13.90;81.90;;;;;;2034332;29;20043;-90
2021/07/30 03:48:31;;;;;;;6.13;3.42;;;13.90;81.90;;;;;;2046910;28;20102;-91
2021/07/30 03:49:32;;;;;;;6.28;3.55;;;14.00;81.90;;;;;;2050932;28;20059;-90
2021/07/30 03:50:33;;;;;;;5.28;3.45;;;13.90;81.80;;;;;;2040071;29;20110;-90
2021/07/30 03:51:33;;;;;;;5.45;3.22;;;13.90;81.80;;;;;;2042227;29;20091;-89
2021/07/30 03:52:34;;;;;;;6.28;3.75;;;14.00;81.90;;;;;;2038373;29;20071;-90
2021/07/30 03:53:35;;;;;;;5.30;3.25;;;14.00;81.80;;;;;;2041139;29;20140;-90
2021/07/30 03:54:35;;;;;;;5.32;3.17;;;13.90;81.80;;;;;;2042901;29;20039;-91
2021/07/30 03:55:36;;;;;;;6.75;3.83;;;14.00;81.80;;;;;;2058079;28;20121;-90
2021/07/30 03:56:41;;;;;;;5.85;3.40;;;14.00;81.80;;;;;;2035855;29;20040;-90
2021/07/30 03:57:42;;;;;;;6.47;3.40;;;14.00;81.80;;;;;;2027779;29;20048;-90
2021/07/30 03:58:45;;;;;;;5.20;3.30;;;14.00;81.90;;;;;;2038404;29;20083;-89
2021/07/30 03:59:45;;;;;;;5.50;2.95;;;14.00;82.40;;;;;;2048209;28;20095;-90
2021/07/30 04:00:46;;;;;;;5.15;3.55;;;14.00;81.80;;;;;;2042146;28;20473;-90
2021/07/30 04:01:49;;;;;;;5.18;3.13;;;14.00;81.80;;;;;;2042834;29;20040;-91
2021/07/30 04:02:50;;;;;;;5.53;3.58;;;14.10;81.80;;;;;;2058450;28;20134;-90
2021/07/30 04:03:50;;;;;;;4.82;3.35;;;14.10;81.80;;;;;;2050104;29;20086;-90
2021/07/30 04:04:51;;;;;;;4.47;3.13;;;14.10;81.80;;;;;;2042346;29;20118;-90
2021/07/30 04:05:52;;;;;;;6.05;3.63;;;14.10;81.70;;;;;;2042811;29;20040;-90
2021/07/30 04:06:53;;;;;;;6.28;3.25;;;14.10;81.70;;;;;;2042687;29;20043;-90
2021/07/30 04:07:54;;;;;;;6.00;3.55;;;14.10;81.80;;;;;;2058598;28;20043;-90
2021/07/30 04:08:54;;;;;;;6.68;3.58;;;14.10;81.80;;;;;;2040790;29;20131;-90
2021/07/30 04:09:55;;;;;;;5.88;3.20;;;14.10;81.80;;;;;;2041083;28;20096;-90
2021/07/30 04:10:58;;;;;;;4.68;3.13;;;14.10;81.80;;;;;;2041755;28;20050;-90
2021/07/30 04:11:58;;;;;;;5.90;3.42;;;14.10;81.80;;;;;;2043179;29;20028;-90
2021/07/30 04:12:59;;;;;;;5.05;3.42;;;14.10;81.80;;;;;;2049999;28;20039;-89
2021/07/30 04:14:00;;;;;;;6.38;3.40;;;14.10;81.80;;;;;;2042335;29;20063;-90
2021/07/30 04:15:00;;;;;;;5.68;3.17;;;14.10;81.80;;;;;;2042617;29;20040;-91
2021/07/30 04:16:05;;;;;;;4.93;3.28;;;14.10;81.80;;;;;;2042972;29;20048;-90
2021/07/30 04:17:08;;;;;;;6.30;3.60;;;14.10;81.80;;;;;;2045157;28;20436;-90
2021/07/30 04:18:08;;;;;;;4.65;2.92;;;14.20;81.70;;;;;;2059368;28;20062;-90
2021/07/30 04:19:09;;;;;;;5.53;3.28;;;14.20;81.70;;;;;;2046749;29;20035;-90
2021/07/30 04:20:10;;;;;;;4.90;3.25;;;14.20;81.70;;;;;;2043699;29;20047;-90
2021/07/30 04:21:11;;;;;;;6.55;3.30;;;14.20;81.60;;;;;;2043234;29;20043;-90
2021/07/30 04:22:12;;;;;;;5.53;3.10;;;14.20;81.60;;;;;;2047983;29;20138;-90
2021/07/30 04:23:13;;;;;;;5.95;3.40;;;14.20;81.50;;;;;;2052525;28;20038;-90
2021/07/30 04:24:14;;;;;;;6.25;3.00;;;14.20;81.50;;;;;;2044732;29;20039;-90
2021/07/30 04:25:14;;;;;;;5.75;3.40;;;14.20;81.50;;;;;;2045800;29;20046;-90
2021/07/30 04:26:15;;;;;;;5.90;3.47;;;14.20;81.50;;;;;;2061664;28;20062;-90
2021/07/30 04:27:16;;;;;;;5.57;3.67;;;14.30;81.60;;;;;;2062342;28;20030;-90
2021/07/30 04:28:16;;;;;;;4.90;3.17;;;14.30;81.60;;;;;;2053963;28;20071;-90
2021/07/30 04:29:17;;;;;;;6.10;3.20;;;14.30;81.60;;;;;;2053747;28;20036;-89
2021/07/30 04:30:18;;;;;;;5.53;3.42;;;14.30;81.50;;;;;;2053161;28;20155;-91
2021/07/30 04:31:19;;;;;;;5.35;3.53;;;14.30;81.50;;;;;;2043533;29;20047;-91
2021/07/30 04:32:20;;;;;;;5.55;3.00;;;14.30;81.50;;;;;;2052799;28;20130;-90
2021/07/30 04:33:20;;;;;;;5.50;3.20;;;14.30;81.40;;;;;;2042624;29;20043;-91
2021/07/30 04:34:21;;;;;;;6.20;3.20;;;14.30;81.40;;;;;;2050260;28;20031;-91
2021/07/30 04:35:22;;;;;;;6.03;3.38;;;14.30;81.40;;;;;;2050236;28;20118;-91
2021/07/30 04:36:23;;;;;;;4.65;3.25;;;14.30;81.30;;;;;;2034056;29;20147;-91
2021/07/30 04:37:23;;;;;;;6.38;3.53;;;14.30;81.30;;;;;;2045319;28;20039;-91
2021/07/30 04:38:24;;;;;;;6.65;3.38;;;14.30;81.30;;;;;;2046936;29;20039;-91
2021/07/30 04:39:24;;;;;;;6.32;3.70;;;14.30;81.30;;;;;;2042912;29;20032;-91
2021/07/30 04:40:25;;;;;;;5.03;3.30;;;14.40;81.30;;;;;;2050002;28;20054;-91
2021/07/30 04:41:26;;;;;;;5.40;3.55;;;14.40;81.30;;;;;;2050747;29;20043;-91
2021/07/30 04:42:27;;;;;;;5.88;3.45;;;14.40;81.30;;;;;;2042232;29;20055;-91
2021/07/30 04:43:27;;;;;;;7.00;3.50;;;14.40;81.30;;;;;;2058533;28;20131;-91
2021/07/30 04:44:28;;;;;;;6.75;3.50;;;14.40;81.20;;;;;;2050282;29;20039;-90
2021/07/30 04:45:29;;;;;;;6.47;3.47;;;14.40;81.20;;;;;;2038548;29;20035;-91
2021/07/30 04:46:29;;;;;;;4.65;2.95;;;14.40;81.20;;;;;;2050614;28;20094;-90
2021/07/30 04:47:31;;;;;;;5.40;3.50;;;14.50;81.20;;;;;;2044347;29;20036;-90
2021/07/30 04:48:32;;;;;;;5.57;3.42;;;14.50;81.20;;;;;;2043392;28;20518;-90
2021/07/30 04:49:32;;;;;;;5.45;2.95;;;14.50;81.10;;;;;;2046424;29;20126;-90
2021/07/30 04:50:34;;;;;;;5.13;3.20;;;14.50;81.10;;;;;;2032741;29;20056;-90
2021/07/30 04:51:35;;;;;;;5.55;3.38;;;14.50;81.10;;;;;;2051739;28;20039;-90
2021/07/30 04:52:35;;;;;;;5.05;2.90;;;14.50;81.10;;;;;;2044396;29;20051;-91
2021/07/30 04:53:36;;;;;;;5.22;3.13;;;14.50;81.10;;;;;;2042788;29;20047;-90
2021/07/30 04:54:37;;;;;;;5.90;3.35;;;14.50;81.00;;;;;;2034870;29;20044;-90
2021/07/30 04:55:38;;;;;;;4.60;3.10;;;14.50;80.90;;;;;;2043049;28;21387;-90
2021/07/30 04:56:38;;;;;;;4.95;2.90;;;14.60;80.90;;;;;;2036396;29;20131;-90
2021/07/30 04:57:39;;;;;;;5.90;3.05;;;14.60;80.90;;;;;;2042092;29;20032;-90
2021/07/30 04:58:39;;;;;;;6.30;3.28;;;14.60;80.80;;;;;;2040604;28;20581;-90
2021/07/30 04:59:40;;;;;;;5.15;3.20;;;14.60;80.70;;;;;;2037995;29;20504;-90
2021/07/30 05:00:41;;;;;;;7.00;3.17;;;14.70;80.80;;;;;;2057036;28;20531;-91
2021/07/30 05:01:42;;;;;;;4.18;2.83;;;14.70;80.70;;;;;;2056334;28;20041;-90
2021/07/30 05:02:42;;;;;;;6.05;3.25;;;14.70;80.70;;;;;;2050191;29;20050;-90
2021/07/30 05:03:43;;;;;;;5.35;3.17;;;14.70;80.60;;;;;;2042282;29;20107;-91
2021/07/30 05:04:44;;;;;;;5.82;3.00;;;14.70;80.50;;;;;;2042667;29;20084;-90
2021/07/30 05:05:45;;;;;;;5.65;3.30;;;14.80;80.50;;;;;;2042263;29;20100;-90
2021/07/30 05:06:46;;;;;;;6.18;3.35;;;14.80;80.50;;;;;;2042143;29;20098;-90
2021/07/30 05:07:47;;;;;;;5.03;3.30;;;14.80;80.40;;;;;;2034133;29;20044;-91
2021/07/30 05:08:48;;;;;;;5.55;3.30;;;14.80;80.40;;;;;;2042129;29;20070;-90
2021/07/30 05:09:49;;;;;;;6.13;3.35;;;14.80;80.30;;;;;;2042045;29;20047;-91
2021/07/30 05:10:50;;;;;;;4.68;3.28;;;14.80;80.40;;;;;;2029996;29;20043;-90
2021/07/30 05:11:50;;;;;;;5.82;3.42;;;14.80;80.40;;;;;;2042284;29;20504;-90
2021/07/30 05:12:51;;;;;;;5.70;3.35;;;14.80;80.40;;;;;;2042240;29;20040;-90
2021/07/30 05:13:52;;;;;;;5.25;3.13;;;14.80;80.30;;;;;;2040759;29;20403;-90
2021/07/30 05:14:52;;;;;;;5.00;2.92;;;14.90;80.40;;;;;;2033172;29;20396;-89
2021/07/30 05:15:53;;;;;;;6.95;3.72;;;14.90;80.40;;;;;;2030569;29;20140;-90
2021/07/30 05:16:54;;;;;;;5.22;3.33;;;14.90;80.30;;;;;;2050051;28;20059;-90
2021/07/30 05:17:54;;;;;;;5.13;3.38;;;14.90;80.20;;;;;;2050146;29;20516;-90
2021/07/30 05:18:55;;;;;;;6.05;3.58;;;14.90;80.10;;;;;;2033772;29;20079;-90